createdAt,value
2022-11-22T00:00:16.632Z,5.10
2022-11-22T00:02:43.746Z,5.20
2022-11-22T00:05:11.204Z,5.20
2022-11-22T00:07:38.244Z,5.10
2022-11-22T00:10:09.510Z,5.10
2022-11-22T00:12:36.464Z,5.10
2022-11-22T00:15:03.947Z,5.10
2022-11-22T00:17:31.974Z,5.20
2022-11-22T00:19:58.624Z,5.30
2022-11-22T00:22:25.671Z,5.10
2022-11-22T00:24:52.826Z,5.30
2022-11-22T00:27:20.559Z,5.20
2022-11-22T00:29:47.225Z,5.10
2022-11-22T00:32:14.183Z,5.20
2022-11-22T00:34:41.114Z,5.20
2022-11-22T00:37:07.777Z,5.20
2022-11-22T00:39:34.686Z,5.30
2022-11-22T00:42:01.644Z,5.30
2022-11-22T00:44:28.239Z,5.30
2022-11-22T00:46:54.930Z,5.30
2022-11-22T00:49:21.674Z,5.30
2022-11-22T00:51:48.322Z,5.30
2022-11-22T00:54:15.172Z,5.30
2022-11-22T00:56:41.960Z,5.30
2022-11-22T00:59:08.624Z,5.30
2022-11-22T01:01:35.523Z,5.40
2022-11-22T01:04:02.421Z,5.30
2022-11-22T01:06:29.165Z,5.30
2022-11-22T01:08:55.941Z,5.30
2022-11-22T01:11:22.599Z,5.40
2022-11-22T01:13:49.266Z,5.40
2022-11-22T01:16:16.247Z,5.40
2022-11-22T01:18:43.374Z,5.40
2022-11-22T01:21:10.194Z,5.30
2022-11-22T01:23:36.936Z,5.30
2022-11-22T01:26:06.497Z,5.30
2022-11-22T01:28:33.098Z,5.40
2022-11-22T01:30:59.758Z,5.30
2022-11-22T01:33:26.495Z,5.40
2022-11-22T01:35:54.160Z,5.40
2022-11-22T01:38:20.777Z,5.30
2022-11-22T01:40:47.422Z,5.50
2022-11-22T01:43:19.290Z,5.50
2022-11-22T01:45:49.606Z,5.40
2022-11-22T01:48:28.224Z,5.50
2022-11-22T01:51:02.166Z,5.50
2022-11-22T01:53:33.584Z,5.40
2022-11-22T01:56:02.580Z,5.50
2022-11-22T01:58:31.980Z,5.50
2022-11-22T02:00:59.138Z,5.50
2022-11-22T02:03:28.637Z,5.50
2022-11-22T02:05:56.212Z,5.50
2022-11-22T02:08:41.983Z,5.50
2022-11-22T02:11:10.885Z,5.50
2022-11-22T02:13:41.612Z,5.60
2022-11-22T02:16:10.144Z,5.50
2022-11-22T02:18:37.936Z,5.50
2022-11-22T02:21:06.222Z,5.60
2022-11-22T02:23:44.217Z,5.60
2022-11-22T02:26:12.040Z,5.60
2022-11-22T02:28:40.501Z,5.50
2022-11-22T02:31:07.443Z,5.50
2022-11-22T02:33:34.874Z,5.50
2022-11-22T02:36:02.136Z,5.60
2022-11-22T02:38:34.261Z,5.50
2022-11-22T02:41:08.945Z,5.60
2022-11-22T02:43:42.838Z,5.50
2022-11-22T02:46:13.154Z,5.60
2022-11-22T02:48:44.287Z,5.60
2022-11-22T02:51:16.585Z,5.60
2022-11-22T02:53:43.984Z,5.60
2022-11-22T02:56:10.584Z,5.50
2022-11-22T02:58:37.173Z,5.60
2022-11-22T03:01:04.443Z,5.60
2022-11-22T03:03:32.575Z,5.60
2022-11-22T03:05:59.374Z,5.70
2022-11-22T03:08:26.008Z,5.60
2022-11-22T03:10:52.582Z,5.70
2022-11-22T03:13:19.291Z,5.60
2022-11-22T03:15:48.674Z,5.60
2022-11-22T03:18:15.289Z,5.70
2022-11-22T03:20:41.865Z,5.80
2022-11-22T03:23:08.613Z,5.70
2022-11-22T03:25:39.011Z,5.80
2022-11-22T03:28:05.812Z,5.70
2022-11-22T03:30:32.831Z,5.80
2022-11-22T03:32:59.441Z,5.70
2022-11-22T03:35:26.015Z,5.80
2022-11-22T03:37:52.635Z,5.70
2022-11-22T03:40:20.986Z,5.70
2022-11-22T03:42:47.709Z,5.70
2022-11-22T03:45:14.460Z,5.80
2022-11-22T03:47:41.126Z,5.70
2022-11-22T03:50:08.060Z,5.80
2022-11-22T03:52:34.671Z,5.80
2022-11-22T03:55:01.399Z,5.90
2022-11-22T03:57:28.165Z,5.80
2022-11-22T03:59:54.736Z,5.80
2022-11-22T04:02:21.511Z,5.80
2022-11-22T04:04:48.143Z,5.90
2022-11-22T04:07:14.775Z,5.80
2022-11-22T04:09:41.499Z,5.90
2022-11-22T04:12:08.081Z,5.90
2022-11-22T04:14:53.194Z,5.90
2022-11-22T04:17:39.792Z,5.90
2022-11-22T04:20:34.217Z,5.90
2022-11-22T04:23:12.426Z,5.90
2022-11-22T04:25:42.635Z,5.90
2022-11-22T04:28:11.469Z,6.00
2022-11-22T04:30:57.255Z,6.00
2022-11-22T04:33:24.251Z,6.00
2022-11-22T04:35:51.165Z,6.00
2022-11-22T04:38:18.812Z,6.00
2022-11-22T04:40:45.446Z,6.10
2022-11-22T04:43:51.041Z,6.00
2022-11-22T04:46:17.675Z,6.00
2022-11-22T04:48:44.321Z,6.10
2022-11-22T04:51:33.248Z,6.00
2022-11-22T04:53:59.978Z,6.00
2022-11-22T04:56:26.667Z,6.10
2022-11-22T04:58:54.529Z,6.00
2022-11-22T05:01:21.324Z,6.00
2022-11-22T05:03:48.016Z,6.00
2022-11-22T05:06:14.824Z,6.00
2022-11-22T05:08:41.613Z,6.10
2022-11-22T05:11:08.210Z,6.10
2022-11-22T05:13:40.405Z,6.00
2022-11-22T05:16:10.216Z,6.00
2022-11-22T05:18:37.404Z,6.10
2022-11-22T05:21:07.931Z,6.00
2022-11-22T05:23:53.613Z,6.00
2022-11-22T05:26:40.621Z,6.10
2022-11-22T05:29:09.295Z,6.00
2022-11-22T05:31:38.283Z,6.00
2022-11-22T05:34:05.245Z,6.10
2022-11-22T05:36:33.391Z,6.00
2022-11-22T05:39:00.248Z,6.10
2022-11-22T05:41:27.281Z,6.10
2022-11-22T05:43:56.287Z,6.00
2022-11-22T05:46:26.430Z,6.20
2022-11-22T05:48:54.704Z,6.10
2022-11-22T05:51:29.268Z,6.00
2022-11-22T05:54:00.456Z,6.00
2022-11-22T05:56:27.130Z,6.10
2022-11-22T05:58:53.737Z,6.10
2022-11-22T06:01:22.512Z,6.20
2022-11-22T06:03:50.057Z,6.10
2022-11-22T06:06:17.049Z,6.00
2022-11-22T06:08:46.853Z,6.10
2022-11-22T06:11:19.028Z,6.00
2022-11-22T06:13:47.607Z,6.00
2022-11-22T06:16:14.908Z,6.10
2022-11-22T06:18:42.296Z,6.10
2022-11-22T06:21:12.629Z,6.10
2022-11-22T06:23:39.434Z,6.10
2022-11-22T06:26:12.054Z,6.00
2022-11-22T06:28:39.919Z,6.10
2022-11-22T06:31:23.560Z,6.00
2022-11-22T06:33:50.893Z,6.10
2022-11-22T06:36:19.691Z,6.00
2022-11-22T06:38:46.935Z,6.10
2022-11-22T06:41:18.917Z,6.00
2022-11-22T06:43:49.308Z,6.10
2022-11-22T06:46:18.485Z,6.00
2022-11-22T06:48:45.597Z,6.00
2022-11-22T06:51:21.462Z,6.00
2022-11-22T06:53:49.947Z,6.00
2022-11-22T06:56:21.599Z,6.00
2022-11-22T06:58:50.433Z,5.90
2022-11-22T07:01:20.123Z,6.00
2022-11-22T07:03:47.221Z,5.90
2022-11-22T07:06:15.629Z,5.90
2022-11-22T07:08:43.451Z,5.90
2022-11-22T07:11:13.327Z,5.90
2022-11-22T07:13:40.317Z,5.80
2022-11-22T07:16:08.944Z,5.80
2022-11-22T07:18:35.677Z,5.80
2022-11-22T07:21:12.446Z,5.80
2022-11-22T07:23:41.381Z,5.80
2022-11-22T07:26:08.285Z,5.70
2022-11-22T07:28:35.062Z,5.80
2022-11-22T07:31:03.787Z,5.80
2022-11-22T07:33:30.773Z,5.90
2022-11-22T07:36:07.640Z,5.90
2022-11-22T07:38:34.908Z,5.90
2022-11-22T07:41:02.258Z,5.90
2022-11-22T07:43:29.421Z,5.90
2022-11-22T07:46:08.299Z,5.90
2022-11-22T07:48:35.359Z,5.90
2022-11-22T07:51:06.951Z,5.80
2022-11-22T07:53:34.874Z,5.80
2022-11-22T07:56:03.492Z,5.80
2022-11-22T07:58:30.496Z,5.80
2022-11-22T08:00:57.286Z,5.80
2022-11-22T08:03:28.830Z,5.80
2022-11-22T08:06:04.212Z,5.80
2022-11-22T08:08:31.393Z,5.80
2022-11-22T08:10:58.028Z,5.80
2022-11-22T08:13:25.282Z,5.90
2022-11-22T08:15:54.619Z,5.80
2022-11-22T08:18:21.940Z,5.80
2022-11-22T08:20:48.585Z,5.80
2022-11-22T08:23:15.277Z,5.80
2022-11-22T08:25:41.961Z,5.80
2022-11-22T08:28:08.554Z,5.80
2022-11-22T08:30:35.214Z,5.80
2022-11-22T08:33:01.905Z,5.90
2022-11-22T08:35:28.987Z,5.80
2022-11-22T08:37:57.163Z,5.80
2022-11-22T08:40:24.089Z,5.80
2022-11-22T08:42:54.019Z,5.80
2022-11-22T08:45:20.694Z,5.80
2022-11-22T08:47:48.884Z,5.80
2022-11-22T08:50:17.218Z,5.80
2022-11-22T08:52:44.030Z,5.80
2022-11-22T08:55:10.798Z,5.90
2022-11-22T08:57:37.472Z,5.90
2022-11-22T09:00:06.168Z,5.90
2022-11-22T09:02:32.916Z,5.90
2022-11-22T09:04:59.499Z,6.00
2022-11-22T09:10:12.946Z,6.00
2022-11-22T09:12:44.556Z,6.00
2022-11-22T09:15:11.803Z,6.10
2022-11-22T09:17:38.867Z,6.10
2022-11-22T09:20:06.408Z,6.10
2022-11-22T09:22:33.050Z,6.10
2022-11-22T09:24:59.653Z,6.20
2022-11-22T09:27:26.777Z,6.20
2022-11-22T09:29:53.362Z,6.20
2022-11-22T09:32:20.107Z,6.20
2022-11-22T09:34:46.695Z,6.20
2022-11-22T09:37:17.180Z,6.30
2022-11-22T09:39:48.265Z,6.40
2022-11-22T09:42:33.512Z,6.50
2022-11-22T09:45:37.530Z,6.60
2022-11-22T09:48:21.825Z,6.80
2022-11-22T09:51:15.246Z,6.90
2022-11-22T09:53:52.954Z,6.90
2022-11-22T09:56:23.139Z,7.10
2022-11-22T09:58:54.879Z,7.00
2022-11-22T10:01:31.443Z,7.00
2022-11-22T10:04:12.635Z,7.00
2022-11-22T10:06:42.899Z,7.10
2022-11-22T10:09:49.022Z,7.10
2022-11-22T10:12:45.382Z,7.10
2022-11-22T10:15:30.145Z,6.90
2022-11-22T10:18:19.673Z,6.80
2022-11-22T10:20:48.963Z,6.70
2022-11-22T10:23:21.941Z,6.70
2022-11-22T10:26:20.506Z,6.70
2022-11-22T10:29:17.954Z,6.60
2022-11-22T10:31:44.558Z,6.60
2022-11-22T10:34:21.848Z,6.60
2022-11-22T10:37:36.045Z,6.50
2022-11-22T10:40:23.009Z,6.50
2022-11-22T10:43:11.594Z,6.50
2022-11-22T10:45:48.359Z,6.50
2022-11-22T10:48:34.103Z,6.40
2022-11-22T10:51:32.040Z,6.40
2022-11-22T10:54:22.680Z,6.20
2022-11-22T10:56:55.384Z,6.30
2022-11-22T10:59:35.897Z,6.20
2022-11-22T11:02:42.252Z,6.20
2022-11-22T11:05:16.722Z,6.30
2022-11-22T11:07:48.561Z,6.20
2022-11-22T11:10:34.479Z,6.20
2022-11-22T11:13:15.205Z,6.20
2022-11-22T11:15:55.570Z,6.30
2022-11-22T11:18:30.426Z,6.40
2022-11-22T11:20:57.133Z,6.50
2022-11-22T11:23:23.749Z,6.60
2022-11-22T11:25:52.299Z,6.60
2022-11-22T11:28:19.437Z,6.70
2022-11-22T11:31:07.626Z,6.70
2022-11-22T11:33:38.198Z,6.70
2022-11-22T11:36:08.667Z,6.70
2022-11-22T11:38:52.357Z,6.70
2022-11-22T11:41:19.074Z,6.70
2022-11-22T11:43:46.791Z,6.80
2022-11-22T11:46:26.809Z,6.80
2022-11-22T11:49:13.683Z,6.70
2022-11-22T11:51:44.086Z,6.60
2022-11-22T11:54:15.946Z,6.60
2022-11-22T11:57:03.544Z,6.60
2022-11-22T11:59:39.268Z,6.60
2022-11-22T12:02:17.061Z,6.60
2022-11-22T12:04:56.382Z,6.50
2022-11-22T12:07:36.527Z,6.50
2022-11-22T12:10:31.151Z,6.50
2022-11-22T12:13:04.796Z,6.50
2022-11-22T12:15:53.018Z,6.60
2022-11-22T12:18:37.458Z,6.70
2022-11-22T12:21:22.503Z,6.70
2022-11-22T12:27:02.944Z,6.70
2022-11-22T12:29:34.088Z,6.70
2022-11-22T12:32:07.422Z,6.70
2022-11-22T12:34:58.474Z,6.60
2022-11-22T12:37:36.480Z,6.60
2022-11-22T12:40:12.694Z,6.60
2022-11-22T12:42:54.332Z,6.60
2022-11-22T12:45:38.563Z,6.60
2022-11-22T12:48:09.409Z,6.60
2022-11-22T12:50:46.808Z,6.50
2022-11-22T12:53:30.031Z,6.60
2022-11-22T12:56:32.712Z,6.50
2022-11-22T12:59:11.609Z,6.60
2022-11-22T13:01:58.340Z,6.70
2022-11-22T13:04:42.190Z,6.70
2022-11-22T13:07:22.434Z,6.60
2022-11-22T13:09:55.439Z,6.70
2022-11-22T13:12:31.616Z,6.60
2022-11-22T13:14:59.452Z,6.60
2022-11-22T13:17:30.974Z,6.60
2022-11-22T13:20:02.822Z,6.70
2022-11-22T13:22:52.867Z,6.70
2022-11-22T13:25:41.775Z,6.60
2022-11-22T13:28:22.977Z,6.60
2022-11-22T13:31:11.515Z,6.50
2022-11-22T13:33:43.243Z,6.50
2022-11-22T13:36:31.189Z,6.50
2022-11-22T13:39:00.238Z,6.50
2022-11-22T13:42:06.378Z,6.50
2022-11-22T13:44:33.489Z,6.40
2022-11-22T13:47:03.277Z,6.40
2022-11-22T13:49:48.636Z,6.40
2022-11-22T13:52:15.878Z,6.30
2022-11-22T13:54:48.109Z,6.30
2022-11-22T13:57:38.828Z,6.30
2022-11-22T14:00:11.947Z,6.30
2022-11-22T14:03:11.323Z,6.30
2022-11-22T14:05:41.977Z,6.40
2022-11-22T14:08:26.687Z,6.30
2022-11-22T14:10:53.314Z,6.30
2022-11-22T14:13:42.389Z,6.40
2022-11-22T14:16:11.693Z,6.40
2022-11-22T14:19:00.124Z,6.40
2022-11-22T14:21:40.387Z,6.40
2022-11-22T14:24:44.734Z,6.40
2022-11-22T14:27:24.968Z,6.40
2022-11-22T14:30:33.463Z,6.30
2022-11-22T14:33:18.886Z,6.40
2022-11-22T14:36:07.202Z,6.30
2022-11-22T14:38:42.176Z,6.30
2022-11-22T14:41:31.021Z,6.30
2022-11-22T14:44:18.420Z,6.30
2022-11-22T14:47:18.015Z,6.40
2022-11-22T14:49:48.567Z,6.40
2022-11-22T14:52:25.222Z,6.40
2022-11-22T14:55:19.998Z,6.40
2022-11-22T14:57:51.806Z,6.40
2022-11-22T15:00:23.622Z,6.40
2022-11-22T15:03:12.818Z,6.40
2022-11-22T15:09:12.287Z,6.40
2022-11-22T15:09:46.528Z,6.40
2022-11-22T15:12:37.069Z,6.40
2022-11-22T15:59:25.181Z,6.30
2022-11-22T16:01:56.186Z,6.30
2022-11-22T16:04:30.275Z,6.30
2022-11-22T16:07:00.210Z,6.30
2022-11-22T16:09:29.807Z,6.30
2022-11-22T16:12:01.515Z,6.30
2022-11-22T16:14:44.349Z,6.30
2022-11-22T16:17:27.766Z,6.30
2022-11-22T16:20:17.052Z,6.30
2022-11-22T16:22:43.778Z,6.20
2022-11-22T16:25:31.224Z,6.20
2022-11-22T16:27:58.038Z,6.30
2022-11-22T16:30:24.656Z,6.30
2022-11-22T16:32:53.890Z,6.30
2022-11-22T16:35:34.017Z,6.30
2022-11-22T16:38:00.592Z,6.30
2022-11-22T16:40:27.332Z,6.20
2022-11-22T16:42:54.061Z,6.30
2022-11-22T16:45:22.060Z,6.20
2022-11-22T16:47:58.683Z,6.30
2022-11-22T16:50:39.115Z,6.30
2022-11-22T16:53:13.987Z,6.30
2022-11-22T16:55:40.727Z,6.20
2022-11-22T16:58:20.316Z,6.20
2022-11-22T17:00:48.181Z,6.20
2022-11-22T17:03:26.979Z,6.20
2022-11-22T17:05:53.611Z,6.20
2022-11-22T17:08:20.215Z,6.20
2022-11-22T17:10:49.370Z,6.20
2022-11-22T17:13:18.627Z,6.20
2022-11-22T17:15:46.054Z,6.20
2022-11-22T17:18:13.181Z,6.20
2022-11-22T17:20:39.931Z,6.20
2022-11-22T17:23:29.362Z,6.20
2022-11-22T17:25:55.982Z,6.30
2022-11-22T17:28:23.095Z,6.30
2022-11-22T17:30:50.206Z,6.20
2022-11-22T17:33:17.047Z,6.30
2022-11-22T17:35:43.901Z,6.30
2022-11-22T17:38:12.169Z,6.20
2022-11-22T17:40:38.983Z,6.30
2022-11-22T17:43:05.830Z,6.30
2022-11-22T17:45:32.790Z,6.30
2022-11-22T17:47:59.409Z,6.30
2022-11-22T17:50:26.053Z,6.40
2022-11-22T17:52:52.914Z,6.40
2022-11-22T17:55:19.518Z,6.30
2022-11-22T17:57:46.185Z,6.30
2022-11-22T18:00:13.175Z,6.30
2022-11-22T18:02:40.737Z,6.30
2022-11-22T18:05:09.630Z,6.30
2022-11-22T18:07:38.439Z,6.30
2022-11-22T18:10:06.994Z,6.30
2022-11-22T18:12:42.070Z,6.30
2022-11-22T18:15:09.653Z,6.30
2022-11-22T18:17:36.442Z,6.30
2022-11-22T18:20:03.802Z,6.30
2022-11-22T18:22:30.470Z,6.30
2022-11-22T18:24:57.109Z,6.30
2022-11-22T18:27:23.796Z,6.30
2022-11-22T18:29:50.841Z,6.40
2022-11-22T18:32:17.633Z,6.30
2022-11-22T18:34:44.280Z,6.30
2022-11-22T18:37:10.942Z,6.30
2022-11-22T18:39:39.668Z,6.30
2022-11-22T18:42:14.785Z,6.30
2022-11-22T18:44:41.420Z,6.30
2022-11-22T18:47:08.399Z,6.30
2022-11-22T18:49:35.386Z,6.30
2022-11-22T18:52:02.428Z,6.30
2022-11-22T18:54:29.331Z,6.30
2022-11-22T18:56:56.118Z,6.40
2022-11-22T18:59:22.778Z,6.40
2022-11-22T19:01:49.608Z,6.30
2022-11-22T19:04:16.560Z,6.30
2022-11-22T19:06:43.796Z,6.30
2022-11-22T19:09:11.074Z,6.30
2022-11-22T19:11:38.005Z,6.40
2022-11-22T19:14:04.953Z,6.40
2022-11-22T19:16:31.736Z,6.40
2022-11-22T19:18:59.185Z,6.40
2022-11-22T19:21:27.896Z,6.40
2022-11-22T19:23:55.601Z,6.40
2022-11-22T19:26:24.494Z,6.40
2022-11-22T19:28:56.493Z,6.40
2022-11-22T19:31:26.440Z,6.40
2022-11-22T19:33:53.292Z,6.40
2022-11-22T19:36:23.508Z,6.40
2022-11-22T19:38:53.279Z,6.40
2022-11-22T19:41:22.545Z,6.40
2022-11-22T19:43:50.564Z,6.40
2022-11-22T19:46:19.969Z,6.40
2022-11-22T19:48:54.336Z,6.40
2022-11-22T19:51:22.124Z,6.40
2022-11-22T19:53:49.177Z,6.40
2022-11-22T19:56:17.959Z,6.40
2022-11-22T19:58:50.605Z,6.40
2022-11-22T20:01:17.637Z,6.40
2022-11-22T20:03:45.003Z,6.40
2022-11-22T20:06:13.695Z,6.40
2022-11-22T20:08:40.898Z,6.40
2022-11-22T20:11:09.969Z,6.40
2022-11-22T20:13:39.229Z,6.40
2022-11-22T20:16:07.678Z,6.40
2022-11-22T20:18:34.658Z,6.40
2022-11-22T20:21:02.508Z,6.50
2022-11-22T20:23:30.241Z,6.40
2022-11-22T20:26:13.242Z,6.40
2022-11-22T20:28:41.567Z,6.40
2022-11-22T20:31:19.951Z,6.50
2022-11-22T20:33:48.675Z,6.50
2022-11-22T20:36:27.190Z,6.50
2022-11-22T20:38:54.830Z,6.50
2022-11-22T20:41:25.050Z,6.40
2022-11-22T20:43:51.905Z,6.40
2022-11-22T20:46:21.363Z,6.40
2022-11-22T20:48:48.688Z,6.40
2022-11-22T20:51:21.367Z,6.40
2022-11-22T20:53:48.321Z,6.30
2022-11-22T20:56:16.274Z,6.40
2022-11-22T20:58:43.670Z,6.40
2022-11-22T21:01:14.992Z,6.40
2022-11-22T21:03:42.511Z,6.40
2022-11-22T21:06:10.959Z,6.30
2022-11-22T21:08:38.166Z,6.30
2022-11-22T21:11:14.575Z,6.40
2022-11-22T21:13:42.259Z,6.30
2022-11-22T21:16:22.240Z,6.40
2022-11-22T21:18:54.771Z,6.40
2022-11-22T21:21:24.937Z,6.40
2022-11-22T21:23:53.590Z,6.40
2022-11-22T21:26:21.674Z,6.30
2022-11-22T21:28:48.988Z,6.30
2022-11-22T21:31:15.823Z,6.20
2022-11-22T21:33:51.407Z,6.20
2022-11-22T21:36:18.838Z,6.30
2022-11-22T21:38:45.712Z,6.30
2022-11-22T21:44:05.002Z,6.30
2022-11-22T21:46:31.650Z,6.30
2022-11-22T21:48:58.369Z,6.30
2022-11-22T21:51:26.468Z,6.30
2022-11-22T21:53:57.662Z,6.30
2022-11-22T21:56:24.787Z,6.30
2022-11-22T21:58:51.384Z,6.30
2022-11-22T22:01:18.100Z,6.30
2022-11-22T22:03:44.860Z,6.20
2022-11-22T22:06:11.600Z,6.10
2022-11-22T22:08:38.604Z,6.10
2022-11-22T22:11:05.568Z,6.10
2022-11-22T22:13:32.753Z,6.10
2022-11-22T22:16:01.258Z,6.10
2022-11-22T22:18:32.486Z,6.00
2022-11-22T22:21:01.434Z,6.00
2022-11-22T22:23:28.240Z,6.00
2022-11-22T22:25:59.972Z,6.10
2022-11-22T22:28:35.226Z,6.10
2022-11-22T22:31:17.191Z,6.10
2022-11-22T22:33:45.527Z,6.00
2022-11-22T22:36:12.413Z,6.10
2022-11-22T22:38:39.714Z,6.10
2022-11-22T22:41:07.401Z,6.00
2022-11-22T22:43:36.435Z,6.10
2022-11-22T22:46:11.972Z,6.00
2022-11-22T22:48:39.203Z,6.10
2022-11-22T22:51:06.234Z,6.10
2022-11-22T22:53:33.019Z,6.10
2022-11-22T22:55:59.744Z,6.00
2022-11-22T22:58:26.597Z,6.00
2022-11-22T23:00:53.321Z,6.00
2022-11-22T23:03:20.264Z,6.00
2022-11-22T23:05:46.921Z,6.00
2022-11-22T23:08:13.519Z,6.00
2022-11-22T23:10:42.042Z,6.10
2022-11-22T23:13:08.655Z,6.10
2022-11-22T23:15:57.473Z,6.00
2022-11-22T23:18:25.357Z,6.00
2022-11-22T23:20:52.153Z,6.00
2022-11-22T23:23:18.706Z,6.00
2022-11-22T23:25:45.307Z,6.00
2022-11-22T23:28:11.956Z,6.00
2022-11-22T23:30:38.601Z,6.00
2022-11-22T23:33:05.186Z,6.00
2022-11-22T23:35:34.951Z,6.00
2022-11-22T23:38:01.685Z,6.00
2022-11-22T23:40:28.629Z,6.00
2022-11-22T23:42:58.683Z,6.00
2022-11-22T23:45:25.483Z,6.00
2022-11-22T23:47:52.898Z,6.00
2022-11-22T23:50:19.719Z,5.90
2022-11-22T23:52:46.311Z,5.90
2022-11-22T23:55:13.076Z,5.90
2022-11-22T23:57:39.699Z,6.00
